sensor_id;sensor_type;location;lat;lon;timestamp;temperature;humidity
38866;DHT22;62686;48.984;8.394;2024-01-27T00:28:48;-0.30;99.90
38866;DHT22;62686;48.984;8.394;2024-01-27T00:31:17;-0.30;99.90
38866;DHT22;62686;48.984;8.394;2024-01-27T00:33:46;-0.30;99.90
38866;DHT22;62686;48.984;8.394;2024-01-27T00:36:14;-0.20;99.90
38866;DHT22;62686;48.984;8.394;2024-01-27T00:38:42;-0.30;99.90
38866;DHT22;62686;48.984;8.394;2024-01-27T00:41:16;-0.30;99.90
38866;DHT22;62686;48.984;8.394;2024-01-27T00:43:45;-0.20;99.90
38866;DHT22;62686;48.984;8.394;2024-01-27T01:48:27;-0.70;99.90
38866;DHT22;62686;48.984;8.394;2024-01-27T01:53:38;-0.70;99.90
38866;DHT22;62686;48.984;8.394;2024-01-27T01:56:07;-0.70;99.90
38866;DHT22;62686;48.984;8.394;2024-01-27T01:58:36;-0.70;99.90
38866;DHT22;62686;48.984;8.394;2024-01-27T02:01:04;-0.70;99.90
38866;DHT22;62686;48.984;8.394;2024-01-27T02:03:34;-0.70;99.90
38866;DHT22;62686;48.984;8.394;2024-01-27T02:06:03;-0.80;99.90
38866;DHT22;62686;48.984;8.394;2024-01-27T02:08:32;-0.70;99.90
38866;DHT22;62686;48.984;8.394;2024-01-27T02:11:00;-0.70;99.90
38866;DHT22;62686;48.984;8.394;2024-01-27T02:13:29;-0.70;99.90
38866;DHT22;62686;48.984;8.394;2024-01-27T02:15:58;-0.70;99.90
38866;DHT22;62686;48.984;8.394;2024-01-27T02:18:26;-0.80;99.90
38866;DHT22;62686;48.984;8.394;2024-01-27T02:20:56;-0.80;99.90
38866;DHT22;62686;48.984;8.394;2024-01-27T02:23:25;-0.70;99.90
38866;DHT22;62686;48.984;8.394;2024-01-27T02:25:55;-0.60;99.90
38866;DHT22;62686;48.984;8.394;2024-01-27T02:28:24;-0.60;99.90
38866;DHT22;62686;48.984;8.394;2024-01-27T02:30:53;-0.70;99.90
38866;DHT22;62686;48.984;8.394;2024-01-27T02:33:21;-0.70;99.90
38866;DHT22;62686;48.984;8.394;2024-01-27T02:35:50;-0.70;99.90
38866;DHT22;62686;48.984;8.394;2024-01-27T02:38:18;-0.70;99.90
38866;DHT22;62686;48.984;8.394;2024-01-27T02:40:47;-0.70;99.90
38866;DHT22;62686;48.984;8.394;2024-01-27T02:43:17;-0.50;99.90
38866;DHT22;62686;48.984;8.394;2024-01-27T02:45:45;-0.50;99.90
38866;DHT22;62686;48.984;8.394;2024-01-27T02:48:13;-0.50;99.90
38866;DHT22;62686;48.984;8.394;2024-01-27T02:50:42;-0.50;99.90
38866;DHT22;62686;48.984;8.394;2024-01-27T02:53:10;-0.70;99.90
38866;DHT22;62686;48.984;8.394;2024-01-27T02:55:39;-0.80;99.90
38866;DHT22;62686;48.984;8.394;2024-01-27T02:58:07;-0.90;99.90
38866;DHT22;62686;48.984;8.394;2024-01-27T03:00:37;-1.00;99.90
38866;DHT22;62686;48.984;8.394;2024-01-27T03:03:05;-1.00;99.90
38866;DHT22;62686;48.984;8.394;2024-01-27T03:05:34;-0.90;99.90
38866;DHT22;62686;48.984;8.394;2024-01-27T03:08:02;-1.00;99.90
38866;DHT22;62686;48.984;8.394;2024-01-27T03:10:31;-1.00;99.90
38866;DHT22;62686;48.984;8.394;2024-01-27T03:13:00;-1.00;99.90
38866;DHT22;62686;48.984;8.394;2024-01-27T03:15:28;-1.00;99.90
38866;DHT22;62686;48.984;8.394;2024-01-27T03:17:58;-1.10;99.90
38866;DHT22;62686;48.984;8.394;2024-01-27T03:20:27;-1.20;99.90
38866;DHT22;62686;48.984;8.394;2024-01-27T03:22:57;-1.20;99.90
38866;DHT22;62686;48.984;8.394;2024-01-27T03:36:16;-1.30;99.90
38866;DHT22;62686;48.984;8.394;2024-01-27T03:38:44;-1.20;99.90
38866;DHT22;62686;48.984;8.394;2024-01-27T03:41:13;-1.30;99.90
38866;DHT22;62686;48.984;8.394;2024-01-27T03:43:41;-1.20;99.90
38866;DHT22;62686;48.984;8.394;2024-01-27T03:46:10;-1.10;99.90
38866;DHT22;62686;48.984;8.394;2024-01-27T03:48:40;-0.70;99.90
38866;DHT22;62686;48.984;8.394;2024-01-27T03:51:09;-0.50;99.90
38866;DHT22;62686;48.984;8.394;2024-01-27T03:53:39;-0.50;99.90
38866;DHT22;62686;48.984;8.394;2024-01-27T03:56:10;-0.60;99.90
38866;DHT22;62686;48.984;8.394;2024-01-27T03:58:39;-0.80;99.90
38866;DHT22;62686;48.984;8.394;2024-01-27T04:01:08;-0.90;99.90
38866;DHT22;62686;48.984;8.394;2024-01-27T04:03:36;-1.10;99.90
38866;DHT22;62686;48.984;8.394;2024-01-27T04:06:05;-1.20;99.90
38866;DHT22;62686;48.984;8.394;2024-01-27T04:08:33;-1.30;99.90
38866;DHT22;62686;48.984;8.394;2024-01-27T04:11:03;-1.30;99.90
38866;DHT22;62686;48.984;8.394;2024-01-27T04:13:32;-1.30;99.90
38866;DHT22;62686;48.984;8.394;2024-01-27T04:16:02;-1.40;99.90
38866;DHT22;62686;48.984;8.394;2024-01-27T04:18:30;-1.40;99.90
38866;DHT22;62686;48.984;8.394;2024-01-27T04:20:59;-1.40;99.90
38866;DHT22;62686;48.984;8.394;2024-01-27T04:23:27;-1.40;99.90
38866;DHT22;62686;48.984;8.394;2024-01-27T04:25:56;-1.50;99.90
38866;DHT22;62686;48.984;8.394;2024-01-27T04:28:26;-1.40;99.90
38866;DHT22;62686;48.984;8.394;2024-01-27T04:30:56;-1.40;99.90
38866;DHT22;62686;48.984;8.394;2024-01-27T04:33:25;-1.40;99.90
38866;DHT22;62686;48.984;8.394;2024-01-27T04:35:53;-1.50;99.90
38866;DHT22;62686;48.984;8.394;2024-01-27T04:38:22;-1.50;99.90
38866;DHT22;62686;48.984;8.394;2024-01-27T04:40:51;-1.60;99.90
38866;DHT22;62686;48.984;8.394;2024-01-27T04:43:20;-1.60;99.90
38866;DHT22;62686;48.984;8.394;2024-01-27T04:45:50;-1.50;99.90
38866;DHT22;62686;48.984;8.394;2024-01-27T04:48:18;-1.50;99.90
38866;DHT22;62686;48.984;8.394;2024-01-27T04:50:47;-1.50;99.90
38866;DHT22;62686;48.984;8.394;2024-01-27T04:53:15;-1.60;99.90
38866;DHT22;62686;48.984;8.394;2024-01-27T04:55:43;-1.70;99.90
38866;DHT22;62686;48.984;8.394;2024-01-27T04:58:12;-1.70;99.90
38866;DHT22;62686;48.984;8.394;2024-01-27T05:00:41;-1.80;99.90
38866;DHT22;62686;48.984;8.394;2024-01-27T05:03:11;-1.70;99.90
38866;DHT22;62686;48.984;8.394;2024-01-27T05:05:41;-1.80;99.90
38866;DHT22;62686;48.984;8.394;2024-01-27T05:08:10;-1.80;99.90
38866;DHT22;62686;48.984;8.394;2024-01-27T05:10:38;-1.80;99.90
38866;DHT22;62686;48.984;8.394;2024-01-27T05:13:07;-1.80;99.90
38866;DHT22;62686;48.984;8.394;2024-01-27T05:15:35;-1.80;99.90
38866;DHT22;62686;48.984;8.394;2024-01-27T05:18:04;-1.90;99.90
38866;DHT22;62686;48.984;8.394;2024-01-27T05:20:34;-1.90;99.90
38866;DHT22;62686;48.984;8.394;2024-01-27T05:23:03;-1.80;99.90
38866;DHT22;62686;48.984;8.394;2024-01-27T05:25:31;-1.80;99.90
38866;DHT22;62686;48.984;8.394;2024-01-27T05:28:00;-1.80;99.90
38866;DHT22;62686;48.984;8.394;2024-01-27T05:30:28;-1.80;99.90
38866;DHT22;62686;48.984;8.394;2024-01-27T05:32:57;-1.90;99.90
38866;DHT22;62686;48.984;8.394;2024-01-27T05:35:26;-2.00;99.90
38866;DHT22;62686;48.984;8.394;2024-01-27T05:37:56;-1.90;99.90
38866;DHT22;62686;48.984;8.394;2024-01-27T05:40:25;-2.00;99.90
38866;DHT22;62686;48.984;8.394;2024-01-27T05:42:53;-1.90;99.90
38866;DHT22;62686;48.984;8.394;2024-01-27T05:45:22;-2.00;99.90
38866;DHT22;62686;48.984;8.394;2024-01-27T05:47:50;-1.90;99.90
38866;DHT22;62686;48.984;8.394;2024-01-27T05:50:19;-2.00;99.90
38866;DHT22;62686;48.984;8.394;2024-01-27T05:52:47;-2.00;99.90
38866;DHT22;62686;48.984;8.394;2024-01-27T05:55:17;-2.00;99.90
38866;DHT22;62686;48.984;8.394;2024-01-27T05:57:46;-1.90;99.90
38866;DHT22;62686;48.984;8.394;2024-01-27T06:00:14;-1.70;99.90
38866;DHT22;62686;48.984;8.394;2024-01-27T06:02:43;-1.70;99.90
38866;DHT22;62686;48.984;8.394;2024-01-27T06:05:11;-1.80;99.90
38866;DHT22;62686;48.984;8.394;2024-01-27T06:07:40;-1.80;99.90
38866;DHT22;62686;48.984;8.394;2024-01-27T06:10:09;-1.70;99.90
38866;DHT22;62686;48.984;8.394;2024-01-27T06:12:40;-1.80;99.90
38866;DHT22;62686;48.984;8.394;2024-01-27T06:15:09;-1.90;99.90
38866;DHT22;62686;48.984;8.394;2024-01-27T06:17:37;-1.80;99.90
38866;DHT22;62686;48.984;8.394;2024-01-27T06:20:07;-1.90;99.90
38866;DHT22;62686;48.984;8.394;2024-01-27T06:22:39;-1.90;99.90
38866;DHT22;62686;48.984;8.394;2024-01-27T06:25:10;-1.90;99.90
38866;DHT22;62686;48.984;8.394;2024-01-27T06:27:40;-1.90;99.90
38866;DHT22;62686;48.984;8.394;2024-01-27T06:30:12;-1.70;99.90
38866;DHT22;62686;48.984;8.394;2024-01-27T06:32:43;-1.50;99.90
38866;DHT22;62686;48.984;8.394;2024-01-27T06:35:12;-1.60;99.90
38866;DHT22;62686;48.984;8.394;2024-01-27T06:37:42;-1.80;99.90
38866;DHT22;62686;48.984;8.394;2024-01-27T06:40:13;-1.90;99.90
38866;DHT22;62686;48.984;8.394;2024-01-27T06:42:45;-1.90;99.90
38866;DHT22;62686;48.984;8.394;2024-01-27T06:45:13;-1.90;99.90
38866;DHT22;62686;48.984;8.394;2024-01-27T06:47:42;-1.90;99.90
38866;DHT22;62686;48.984;8.394;2024-01-27T06:50:11;-2.00;99.90
38866;DHT22;62686;48.984;8.394;2024-01-27T06:52:41;-2.00;99.90
38866;DHT22;62686;48.984;8.394;2024-01-27T06:55:10;-2.10;99.90
38866;DHT22;62686;48.984;8.394;2024-01-27T06:57:38;-2.00;99.90
38866;DHT22;62686;48.984;8.394;2024-01-27T07:00:10;-2.00;99.90
38866;DHT22;62686;48.984;8.394;2024-01-27T07:02:43;-2.00;99.90
38866;DHT22;62686;48.984;8.394;2024-01-27T07:08:16;-2.10;99.90
38866;DHT22;62686;48.984;8.394;2024-01-27T07:10:45;-2.30;99.90
38866;DHT22;62686;48.984;8.394;2024-01-27T07:13:13;-2.30;99.90
38866;DHT22;62686;48.984;8.394;2024-01-27T07:15:45;-2.30;99.90
38866;DHT22;62686;48.984;8.394;2024-01-27T07:18:16;-2.30;99.90
38866;DHT22;62686;48.984;8.394;2024-01-27T07:20:49;-2.30;99.90
38866;DHT22;62686;48.984;8.394;2024-01-27T07:23:18;-2.30;99.90
38866;DHT22;62686;48.984;8.394;2024-01-27T07:25:46;-2.30;99.90
38866;DHT22;62686;48.984;8.394;2024-01-27T07:28:15;-2.30;99.90
38866;DHT22;62686;48.984;8.394;2024-01-27T07:30:49;-2.20;99.90
38866;DHT22;62686;48.984;8.394;2024-01-27T07:33:20;-2.00;99.90
38866;DHT22;62686;48.984;8.394;2024-01-27T07:35:49;-1.90;99.90
38866;DHT22;62686;48.984;8.394;2024-01-27T07:38:17;-1.90;99.90
38866;DHT22;62686;48.984;8.394;2024-01-27T07:40:46;-1.90;99.90
38866;DHT22;62686;48.984;8.394;2024-01-27T07:43:14;-1.90;99.90
38866;DHT22;62686;48.984;8.394;2024-01-27T07:45:47;-1.90;99.90
38866;DHT22;62686;48.984;8.394;2024-01-27T07:48:15;-1.90;99.90
38866;DHT22;62686;48.984;8.394;2024-01-27T07:50:44;-1.80;99.90
38866;DHT22;62686;48.984;8.394;2024-01-27T07:53:16;-1.80;99.90
38866;DHT22;62686;48.984;8.394;2024-01-27T07:55:44;-1.60;99.90
38866;DHT22;62686;48.984;8.394;2024-01-27T07:58:13;-1.60;99.90
38866;DHT22;62686;48.984;8.394;2024-01-27T08:00:41;-1.60;99.90
38866;DHT22;62686;48.984;8.394;2024-01-27T08:03:11;-1.50;99.90
38866;DHT22;62686;48.984;8.394;2024-01-27T08:05:40;-1.40;99.90
38866;DHT22;62686;48.984;8.394;2024-01-27T08:08:08;-1.30;99.90
38866;DHT22;62686;48.984;8.394;2024-01-27T08:10:37;-1.30;99.90
38866;DHT22;62686;48.984;8.394;2024-01-27T08:13:08;-1.30;99.90
38866;DHT22;62686;48.984;8.394;2024-01-27T08:15:36;-1.30;99.90
38866;DHT22;62686;48.984;8.394;2024-01-27T08:18:05;-1.30;99.90
38866;DHT22;62686;48.984;8.394;2024-01-27T08:20:35;-1.20;99.90
38866;DHT22;62686;48.984;8.394;2024-01-27T08:23:03;-1.10;99.90
38866;DHT22;62686;48.984;8.394;2024-01-27T08:25:32;-1.10;99.90
38866;DHT22;62686;48.984;8.394;2024-01-27T08:28:01;-1.00;99.90
38866;DHT22;62686;48.984;8.394;2024-01-27T08:30:29;-0.90;99.90
38866;DHT22;62686;48.984;8.394;2024-01-27T08:32:58;-0.80;99.90
38866;DHT22;62686;48.984;8.394;2024-01-27T08:35:26;-0.70;99.90
38866;DHT22;62686;48.984;8.394;2024-01-27T08:37:56;-0.70;99.90
38866;DHT22;62686;48.984;8.394;2024-01-27T08:40:25;-0.60;99.90
38866;DHT22;62686;48.984;8.394;2024-01-27T08:42:54;-0.50;99.90
38866;DHT22;62686;48.984;8.394;2024-01-27T08:45:22;-0.30;99.90
38866;DHT22;62686;48.984;8.394;2024-01-27T08:47:51;-0.20;99.90
38866;DHT22;62686;48.984;8.394;2024-01-27T08:50:21;0.10;99.90
38866;DHT22;62686;48.984;8.394;2024-01-27T08:52:50;0.20;99.90
38866;DHT22;62686;48.984;8.394;2024-01-27T08:55:20;0.40;99.90
38866;DHT22;62686;48.984;8.394;2024-01-27T08:57:51;0.40;99.90
38866;DHT22;62686;48.984;8.394;2024-01-27T09:00:21;0.50;99.90
38866;DHT22;62686;48.984;8.394;2024-01-27T09:02:52;0.50;99.90
38866;DHT22;62686;48.984;8.394;2024-01-27T09:05:21;0.50;99.90
38866;DHT22;62686;48.984;8.394;2024-01-27T09:07:49;0.60;99.90
38866;DHT22;62686;48.984;8.394;2024-01-27T09:10:18;0.60;99.90
38866;DHT22;62686;48.984;8.394;2024-01-27T09:12:48;0.70;99.90
38866;DHT22;62686;48.984;8.394;2024-01-27T09:15:16;0.70;99.90
38866;DHT22;62686;48.984;8.394;2024-01-27T09:17:45;0.70;99.90
38866;DHT22;62686;48.984;8.394;2024-01-27T09:20:15;0.70;99.90
38866;DHT22;62686;48.984;8.394;2024-01-27T09:22:43;0.70;99.90
38866;DHT22;62686;48.984;8.394;2024-01-27T09:25:14;0.70;99.90
38866;DHT22;62686;48.984;8.394;2024-01-27T09:27:44;0.70;99.90
38866;DHT22;62686;48.984;8.394;2024-01-27T09:30:13;0.80;99.90
38866;DHT22;62686;48.984;8.394;2024-01-27T09:32:42;0.90;99.90
38866;DHT22;62686;48.984;8.394;2024-01-27T09:35:11;1.00;99.90
38866;DHT22;62686;48.984;8.394;2024-01-27T09:37:39;1.00;99.90
38866;DHT22;62686;48.984;8.394;2024-01-27T09:40:10;1.20;99.90
38866;DHT22;62686;48.984;8.394;2024-01-27T09:42:46;1.30;99.90
38866;DHT22;62686;48.984;8.394;2024-01-27T09:45:19;1.50;99.90
38866;DHT22;62686;48.984;8.394;2024-01-27T09:47:49;1.70;99.90
38866;DHT22;62686;48.984;8.394;2024-01-27T09:50:21;1.80;99.90
38866;DHT22;62686;48.984;8.394;2024-01-27T09:52:50;1.90;99.90
38866;DHT22;62686;48.984;8.394;2024-01-27T09:55:21;2.00;99.90
38866;DHT22;62686;48.984;8.394;2024-01-27T09:57:51;2.00;99.90
38866;DHT22;62686;48.984;8.394;2024-01-27T10:00:21;2.10;99.90
38866;DHT22;62686;48.984;8.394;2024-01-27T10:02:50;2.30;99.90
38866;DHT22;62686;48.984;8.394;2024-01-27T10:05:20;2.40;99.90
38866;DHT22;62686;48.984;8.394;2024-01-27T10:07:48;2.60;99.90
38866;DHT22;62686;48.984;8.394;2024-01-27T10:10:18;2.70;99.90
38866;DHT22;62686;48.984;8.394;2024-01-27T10:12:48;2.80;99.90
38866;DHT22;62686;48.984;8.394;2024-01-27T10:15:21;2.80;99.90
38866;DHT22;62686;48.984;8.394;2024-01-27T10:17:50;2.90;99.90
38866;DHT22;62686;48.984;8.394;2024-01-27T10:20:19;2.90;99.90
38866;DHT22;62686;48.984;8.394;2024-01-27T10:22:47;3.00;99.90
38866;DHT22;62686;48.984;8.394;2024-01-27T10:25:16;3.10;99.90
38866;DHT22;62686;48.984;8.394;2024-01-27T10:27:44;3.20;99.90
38866;DHT22;62686;48.984;8.394;2024-01-27T10:30:16;3.30;99.90
38866;DHT22;62686;48.984;8.394;2024-01-27T10:32:56;3.40;99.90
38866;DHT22;62686;48.984;8.394;2024-01-27T10:35:25;3.50;99.90
38866;DHT22;62686;48.984;8.394;2024-01-27T10:37:54;3.60;99.90
38866;DHT22;62686;48.984;8.394;2024-01-27T10:40:24;3.80;99.90
38866;DHT22;62686;48.984;8.394;2024-01-27T10:43:00;3.80;99.90
38866;DHT22;62686;48.984;8.394;2024-01-27T10:45:35;3.80;99.90
38866;DHT22;62686;48.984;8.394;2024-01-27T10:48:07;3.90;99.90
38866;DHT22;62686;48.984;8.394;2024-01-27T10:50:38;4.00;99.90
38866;DHT22;62686;48.984;8.394;2024-01-27T10:53:09;4.10;99.90
38866;DHT22;62686;48.984;8.394;2024-01-27T10:55:48;4.20;99.90
38866;DHT22;62686;48.984;8.394;2024-01-27T10:58:18;4.30;99.90
38866;DHT22;62686;48.984;8.394;2024-01-27T11:00:48;4.50;99.90
38866;DHT22;62686;48.984;8.394;2024-01-27T11:03:21;4.70;99.90
38866;DHT22;62686;48.984;8.394;2024-01-27T11:05:51;4.80;99.90
38866;DHT22;62686;48.984;8.394;2024-01-27T11:08:21;4.80;99.90
38866;DHT22;62686;48.984;8.394;2024-01-27T11:10:55;5.00;99.90
38866;DHT22;62686;48.984;8.394;2024-01-27T11:13:24;5.10;99.90
38866;DHT22;62686;48.984;8.394;2024-01-27T11:15:53;5.10;99.90
38866;DHT22;62686;48.984;8.394;2024-01-27T11:18:24;5.20;99.90
38866;DHT22;62686;48.984;8.394;2024-01-27T11:20:53;5.30;99.90
38866;DHT22;62686;48.984;8.394;2024-01-27T11:23:33;5.60;99.90
38866;DHT22;62686;48.984;8.394;2024-01-27T11:26:04;5.80;99.90
38866;DHT22;62686;48.984;8.394;2024-01-27T11:28:33;5.90;99.90
38866;DHT22;62686;48.984;8.394;2024-01-27T11:31:06;6.10;99.90
38866;DHT22;62686;48.984;8.394;2024-01-27T11:33:42;6.10;99.90
38866;DHT22;62686;48.984;8.394;2024-01-27T11:36:19;6.20;99.90
38866;DHT22;62686;48.984;8.394;2024-01-27T11:38:49;6.30;99.90
38866;DHT22;62686;48.984;8.394;2024-01-27T11:41:26;6.40;99.90
38866;DHT22;62686;48.984;8.394;2024-01-27T11:43:56;6.60;99.90
38866;DHT22;62686;48.984;8.394;2024-01-27T11:46:26;6.80;99.90
38866;DHT22;62686;48.984;8.394;2024-01-27T11:48:56;7.00;99.90
38866;DHT22;62686;48.984;8.394;2024-01-27T11:54:00;7.50;99.90
38866;DHT22;62686;48.984;8.394;2024-01-27T15:02:15;12.20;99.90
38866;DHT22;62686;48.984;8.394;2024-01-27T15:29:04;7.80;99.90
38866;DHT22;62686;48.984;8.394;2024-01-27T15:37:25;7.10;99.90
38866;DHT22;62686;48.984;8.394;2024-01-27T15:39:54;7.00;99.90
38866;DHT22;62686;48.984;8.394;2024-01-27T15:42:22;6.90;99.90
38866;DHT22;62686;48.984;8.394;2024-01-27T15:44:52;6.90;99.90
38866;DHT22;62686;48.984;8.394;2024-01-27T15:47:21;6.80;99.90
38866;DHT22;62686;48.984;8.394;2024-01-27T15:49:50;6.70;99.90
38866;DHT22;62686;48.984;8.394;2024-01-27T15:52:23;6.60;99.90
38866;DHT22;62686;48.984;8.394;2024-01-27T15:54:52;6.50;99.90
38866;DHT22;62686;48.984;8.394;2024-01-27T15:57:20;6.30;99.90
38866;DHT22;62686;48.984;8.394;2024-01-27T15:59:49;6.30;99.90
38866;DHT22;62686;48.984;8.394;2024-01-27T16:02:20;6.20;99.90
38866;DHT22;62686;48.984;8.394;2024-01-27T16:04:48;6.20;99.90
38866;DHT22;62686;48.984;8.394;2024-01-27T16:07:16;6.20;99.90
38866;DHT22;62686;48.984;8.394;2024-01-27T16:09:46;6.20;99.90
38866;DHT22;62686;48.984;8.394;2024-01-27T16:12:15;6.00;99.90
38866;DHT22;62686;48.984;8.394;2024-01-27T16:14:44;5.80;99.90
38866;DHT22;62686;48.984;8.394;2024-01-27T16:17:13;5.60;99.90
38866;DHT22;62686;48.984;8.394;2024-01-27T16:19:43;5.70;99.90
38866;DHT22;62686;48.984;8.394;2024-01-27T16:22:12;5.60;99.90
38866;DHT22;62686;48.984;8.394;2024-01-27T16:24:40;5.50;99.90
38866;DHT22;62686;48.984;8.394;2024-01-27T16:27:09;5.50;99.90
38866;DHT22;62686;48.984;8.394;2024-01-27T16:29:37;5.40;99.90
38866;DHT22;62686;48.984;8.394;2024-01-27T16:32:06;5.30;99.90
38866;DHT22;62686;48.984;8.394;2024-01-27T16:34:34;5.30;99.90
38866;DHT22;62686;48.984;8.394;2024-01-27T16:37:05;5.10;99.90
38866;DHT22;62686;48.984;8.394;2024-01-27T16:39:34;5.10;99.90
38866;DHT22;62686;48.984;8.394;2024-01-27T16:42:03;4.90;99.90
38866;DHT22;62686;48.984;8.394;2024-01-27T16:44:32;4.70;99.90
38866;DHT22;62686;48.984;8.394;2024-01-27T16:47:00;4.70;99.90
38866;DHT22;62686;48.984;8.394;2024-01-27T16:49:29;4.60;99.90
38866;DHT22;62686;48.984;8.394;2024-01-27T16:51:58;4.60;99.90
38866;DHT22;62686;48.984;8.394;2024-01-27T16:54:28;4.50;99.90
38866;DHT22;62686;48.984;8.394;2024-01-27T16:56:56;4.50;99.90
38866;DHT22;62686;48.984;8.394;2024-01-27T17:37:14;4.10;99.90
38866;DHT22;62686;48.984;8.394;2024-01-27T17:39:43;3.90;99.90
38866;DHT22;62686;48.984;8.394;2024-01-27T17:42:12;3.90;99.90
38866;DHT22;62686;48.984;8.394;2024-01-27T17:44:40;3.90;99.90
38866;DHT22;62686;48.984;8.394;2024-01-27T17:47:09;3.70;99.90
38866;DHT22;62686;48.984;8.394;2024-01-27T17:49:38;3.70;99.90
38866;DHT22;62686;48.984;8.394;2024-01-27T17:52:06;3.60;99.90
38866;DHT22;62686;48.984;8.394;2024-01-27T17:54:36;3.60;99.90
38866;DHT22;62686;48.984;8.394;2024-01-27T17:57:05;3.60;99.90
38866;DHT22;62686;48.984;8.394;2024-01-27T17:59:37;3.60;99.90
38866;DHT22;62686;48.984;8.394;2024-01-27T18:02:07;3.50;99.90
38866;DHT22;62686;48.984;8.394;2024-01-27T18:04:35;3.50;99.90
38866;DHT22;62686;48.984;8.394;2024-01-27T18:07:05;3.40;99.90
38866;DHT22;62686;48.984;8.394;2024-01-27T18:09:33;3.20;99.90
38866;DHT22;62686;48.984;8.394;2024-01-27T18:12:04;3.20;99.90
38866;DHT22;62686;48.984;8.394;2024-01-27T18:14:33;3.20;99.90
38866;DHT22;62686;48.984;8.394;2024-01-27T18:17:01;3.30;99.90
38866;DHT22;62686;48.984;8.394;2024-01-27T18:19:30;3.30;99.90
38866;DHT22;62686;48.984;8.394;2024-01-27T18:21:58;3.40;99.90
38866;DHT22;62686;48.984;8.394;2024-01-27T18:24:31;3.40;99.90
38866;DHT22;62686;48.984;8.394;2024-01-27T18:29:36;3.20;99.90
38866;DHT22;62686;48.984;8.394;2024-01-27T18:32:06;3.10;99.90
38866;DHT22;62686;48.984;8.394;2024-01-27T18:34:34;3.00;99.90
38866;DHT22;62686;48.984;8.394;2024-01-27T18:37:03;3.00;99.90
38866;DHT22;62686;48.984;8.394;2024-01-27T18:39:32;3.10;99.90
38866;DHT22;62686;48.984;8.394;2024-01-27T18:42:00;3.10;99.90
38866;DHT22;62686;48.984;8.394;2024-01-27T18:44:30;3.10;99.90
38866;DHT22;62686;48.984;8.394;2024-01-27T18:47:00;3.00;99.90
38866;DHT22;62686;48.984;8.394;2024-01-27T18:49:29;2.80;99.90
38866;DHT22;62686;48.984;8.394;2024-01-27T18:51:57;2.70;99.90
38866;DHT22;62686;48.984;8.394;2024-01-27T18:54:26;2.60;99.90
38866;DHT22;62686;48.984;8.394;2024-01-27T18:56:54;2.50;99.90
38866;DHT22;62686;48.984;8.394;2024-01-27T18:59:25;2.60;99.90
38866;DHT22;62686;48.984;8.394;2024-01-27T19:01:54;2.50;99.90
38866;DHT22;62686;48.984;8.394;2024-01-27T19:04:25;2.80;99.90
38866;DHT22;62686;48.984;8.394;2024-01-27T19:06:54;3.00;99.90
38866;DHT22;62686;48.984;8.394;2024-01-27T19:09:22;3.10;99.90
38866;DHT22;62686;48.984;8.394;2024-01-27T19:11:51;3.10;99.90
38866;DHT22;62686;48.984;8.394;2024-01-27T19:14:20;3.30;99.90
38866;DHT22;62686;48.984;8.394;2024-01-27T19:16:48;3.40;99.90
38866;DHT22;62686;48.984;8.394;2024-01-27T19:19:17;3.50;99.90
38866;DHT22;62686;48.984;8.394;2024-01-27T19:21:47;3.60;99.90
38866;DHT22;62686;48.984;8.394;2024-01-27T19:24:16;3.50;99.90
38866;DHT22;62686;48.984;8.394;2024-01-27T19:26:44;3.40;99.90
38866;DHT22;62686;48.984;8.394;2024-01-27T19:29:13;3.20;99.90
38866;DHT22;62686;48.984;8.394;2024-01-27T19:31:42;3.30;99.90
38866;DHT22;62686;48.984;8.394;2024-01-27T19:34:13;3.40;99.90
38866;DHT22;62686;48.984;8.394;2024-01-27T19:36:42;3.50;99.90
38866;DHT22;62686;48.984;8.394;2024-01-27T19:39:12;3.30;99.90
38866;DHT22;62686;48.984;8.394;2024-01-27T19:41:41;3.20;99.90
38866;DHT22;62686;48.984;8.394;2024-01-27T19:44:09;3.10;99.90
38866;DHT22;62686;48.984;8.394;2024-01-27T19:46:38;3.10;99.90
38866;DHT22;62686;48.984;8.394;2024-01-27T19:49:06;3.10;99.90
38866;DHT22;62686;48.984;8.394;2024-01-27T19:51:41;3.10;99.90
38866;DHT22;62686;48.984;8.394;2024-01-27T19:54:12;3.20;99.90
38866;DHT22;62686;48.984;8.394;2024-01-27T19:56:41;3.20;99.90
38866;DHT22;62686;48.984;8.394;2024-01-27T19:59:09;3.20;99.90
38866;DHT22;62686;48.984;8.394;2024-01-27T20:01:38;3.30;99.90
38866;DHT22;62686;48.984;8.394;2024-01-27T20:04:09;3.30;99.90
38866;DHT22;62686;48.984;8.394;2024-01-27T20:06:38;3.40;99.90
38866;DHT22;62686;48.984;8.394;2024-01-27T20:09:07;3.30;99.90
38866;DHT22;62686;48.984;8.394;2024-01-27T20:11:39;3.20;99.90
38866;DHT22;62686;48.984;8.394;2024-01-27T20:14:08;3.10;99.90
38866;DHT22;62686;48.984;8.394;2024-01-27T20:16:39;3.20;99.90
38866;DHT22;62686;48.984;8.394;2024-01-27T20:19:09;3.10;99.90
38866;DHT22;62686;48.984;8.394;2024-01-27T20:21:38;3.00;99.90
38866;DHT22;62686;48.984;8.394;2024-01-27T20:24:07;2.80;99.90
38866;DHT22;62686;48.984;8.394;2024-01-27T20:26:35;2.80;99.90
38866;DHT22;62686;48.984;8.394;2024-01-27T20:29:05;2.80;99.90
38866;DHT22;62686;48.984;8.394;2024-01-27T20:31:34;2.70;99.90
38866;DHT22;62686;48.984;8.394;2024-01-27T20:34:02;2.60;99.90
38866;DHT22;62686;48.984;8.394;2024-01-27T20:36:31;2.50;99.90
38866;DHT22;62686;48.984;8.394;2024-01-27T20:39:00;2.30;99.90
38866;DHT22;62686;48.984;8.394;2024-01-27T20:41:29;2.10;99.90
38866;DHT22;62686;48.984;8.394;2024-01-27T20:43:58;2.10;99.90
38866;DHT22;62686;48.984;8.394;2024-01-27T20:46:28;2.00;99.90
38866;DHT22;62686;48.984;8.394;2024-01-27T20:48:56;1.90;99.90
38866;DHT22;62686;48.984;8.394;2024-01-27T20:51:26;1.90;99.90
38866;DHT22;62686;48.984;8.394;2024-01-27T20:53:55;1.90;99.90
38866;DHT22;62686;48.984;8.394;2024-01-27T20:56:23;1.90;99.90
38866;DHT22;62686;48.984;8.394;2024-01-27T20:58:54;1.80;99.90
38866;DHT22;62686;48.984;8.394;2024-01-27T21:01:22;1.60;99.90
38866;DHT22;62686;48.984;8.394;2024-01-27T21:03:52;1.40;99.90
38866;DHT22;62686;48.984;8.394;2024-01-27T21:06:23;1.40;99.90
38866;DHT22;62686;48.984;8.394;2024-01-27T21:08:52;1.30;99.90
38866;DHT22;62686;48.984;8.394;2024-01-27T21:11:21;1.20;99.90
38866;DHT22;62686;48.984;8.394;2024-01-27T21:13:49;1.00;99.90
38866;DHT22;62686;48.984;8.394;2024-01-27T21:16:18;1.00;99.90
38866;DHT22;62686;48.984;8.394;2024-01-27T21:18:47;1.00;99.90
38866;DHT22;62686;48.984;8.394;2024-01-27T21:21:17;1.00;99.90
38866;DHT22;62686;48.984;8.394;2024-01-27T21:23:47;1.00;99.90
38866;DHT22;62686;48.984;8.394;2024-01-27T21:26:15;1.00;99.90
38866;DHT22;62686;48.984;8.394;2024-01-27T21:28:45;0.90;99.90
38866;DHT22;62686;48.984;8.394;2024-01-27T21:31:14;0.70;99.90
38866;DHT22;62686;48.984;8.394;2024-01-27T21:33:43;0.60;99.90
38866;DHT22;62686;48.984;8.394;2024-01-27T21:36:11;0.40;99.90
38866;DHT22;62686;48.984;8.394;2024-01-27T21:38:41;0.40;99.90
38866;DHT22;62686;48.984;8.394;2024-01-27T21:41:10;0.40;99.90
38866;DHT22;62686;48.984;8.394;2024-01-27T21:43:38;0.30;99.90
38866;DHT22;62686;48.984;8.394;2024-01-27T21:46:07;0.20;99.90
38866;DHT22;62686;48.984;8.394;2024-01-27T21:48:36;0.10;99.90
38866;DHT22;62686;48.984;8.394;2024-01-27T21:51:08;0.00;99.90
38866;DHT22;62686;48.984;8.394;2024-01-27T21:53:37;-0.10;99.90
38866;DHT22;62686;48.984;8.394;2024-01-27T21:56:10;-0.10;99.90
38866;DHT22;62686;48.984;8.394;2024-01-27T21:58:39;-0.10;99.90